sensor_id;sensor_type;location;lat;lon;timestamp;temperature;humidity
52016;DHT22;38032;53.326;6.472;2024-01-30T00:00:45;7.60;99.90
52016;DHT22;38032;53.326;6.472;2024-01-30T00:03:11;7.60;99.90
52016;DHT22;38032;53.326;6.472;2024-01-30T00:05:37;7.50;99.90
52016;DHT22;38032;53.326;6.472;2024-01-30T00:08:03;7.50;99.90
52016;DHT22;38032;53.326;6.472;2024-01-30T00:10:29;7.50;99.90
52016;DHT22;38032;53.326;6.472;2024-01-30T00:12:55;7.50;99.90
52016;DHT22;38032;53.326;6.472;2024-01-30T00:15:21;7.50;99.90
52016;DHT22;38032;53.326;6.472;2024-01-30T00:17:47;7.50;99.90
52016;DHT22;38032;53.326;6.472;2024-01-30T00:20:12;7.40;99.90
52016;DHT22;38032;53.326;6.472;2024-01-30T00:22:38;7.40;99.90
52016;DHT22;38032;53.326;6.472;2024-01-30T00:25:04;7.40;99.90
52016;DHT22;38032;53.326;6.472;2024-01-30T00:27:30;7.30;99.90
52016;DHT22;38032;53.326;6.472;2024-01-30T00:29:56;7.20;99.90
52016;DHT22;38032;53.326;6.472;2024-01-30T00:32:22;7.30;99.90
52016;DHT22;38032;53.326;6.472;2024-01-30T00:34:49;7.30;99.90
52016;DHT22;38032;53.326;6.472;2024-01-30T00:37:14;7.20;99.90
52016;DHT22;38032;53.326;6.472;2024-01-30T00:39:40;7.30;99.90
52016;DHT22;38032;53.326;6.472;2024-01-30T00:42:06;7.20;99.90
52016;DHT22;38032;53.326;6.472;2024-01-30T00:44:35;7.20;99.90
52016;DHT22;38032;53.326;6.472;2024-01-30T00:47:02;7.10;99.90
52016;DHT22;38032;53.326;6.472;2024-01-30T00:49:28;7.10;99.90
52016;DHT22;38032;53.326;6.472;2024-01-30T00:51:54;7.10;99.90
52016;DHT22;38032;53.326;6.472;2024-01-30T00:54:20;7.10;99.90
52016;DHT22;38032;53.326;6.472;2024-01-30T00:56:46;7.10;99.90
52016;DHT22;38032;53.326;6.472;2024-01-30T00:59:11;7.00;99.90
52016;DHT22;38032;53.326;6.472;2024-01-30T01:01:37;7.10;99.90
52016;DHT22;38032;53.326;6.472;2024-01-30T01:04:03;7.00;99.90
52016;DHT22;38032;53.326;6.472;2024-01-30T01:06:29;7.00;99.90
52016;DHT22;38032;53.326;6.472;2024-01-30T01:08:55;7.00;99.90
52016;DHT22;38032;53.326;6.472;2024-01-30T01:11:21;7.00;99.90
52016;DHT22;38032;53.326;6.472;2024-01-30T01:13:47;6.90;99.90
52016;DHT22;38032;53.326;6.472;2024-01-30T01:16:13;6.90;99.90
52016;DHT22;38032;53.326;6.472;2024-01-30T01:18:39;6.80;99.90
52016;DHT22;38032;53.326;6.472;2024-01-30T01:21:04;6.90;99.90
52016;DHT22;38032;53.326;6.472;2024-01-30T01:23:30;6.80;99.90
52016;DHT22;38032;53.326;6.472;2024-01-30T01:25:56;6.80;99.90
52016;DHT22;38032;53.326;6.472;2024-01-30T01:28:22;6.80;99.90
52016;DHT22;38032;53.326;6.472;2024-01-30T01:30:48;6.80;99.90
52016;DHT22;38032;53.326;6.472;2024-01-30T01:33:13;6.70;99.90
52016;DHT22;38032;53.326;6.472;2024-01-30T01:35:39;6.80;99.90
52016;DHT22;38032;53.326;6.472;2024-01-30T01:38:05;6.70;99.90
52016;DHT22;38032;53.326;6.472;2024-01-30T01:40:31;6.70;99.90
52016;DHT22;38032;53.326;6.472;2024-01-30T01:42:57;6.60;99.90
52016;DHT22;38032;53.326;6.472;2024-01-30T01:45:23;6.60;99.90
52016;DHT22;38032;53.326;6.472;2024-01-30T01:47:51;6.50;99.90
52016;DHT22;38032;53.326;6.472;2024-01-30T01:50:18;6.50;99.90
52016;DHT22;38032;53.326;6.472;2024-01-30T01:52:47;6.50;99.90
52016;DHT22;38032;53.326;6.472;2024-01-30T01:55:13;6.50;99.90
52016;DHT22;38032;53.326;6.472;2024-01-30T01:57:41;6.40;99.90
52016;DHT22;38032;53.326;6.472;2024-01-30T02:00:08;6.40;99.90
52016;DHT22;38032;53.326;6.472;2024-01-30T02:02:36;6.40;99.90
52016;DHT22;38032;53.326;6.472;2024-01-30T02:05:03;6.40;99.90
52016;DHT22;38032;53.326;6.472;2024-01-30T02:07:29;6.40;99.90
52016;DHT22;38032;53.326;6.472;2024-01-30T02:09:55;6.40;99.90
52016;DHT22;38032;53.326;6.472;2024-01-30T02:12:21;6.40;99.90
52016;DHT22;38032;53.326;6.472;2024-01-30T02:14:48;6.40;99.90
52016;DHT22;38032;53.326;6.472;2024-01-30T02:17:15;6.40;99.90
52016;DHT22;38032;53.326;6.472;2024-01-30T02:19:41;6.40;99.90
52016;DHT22;38032;53.326;6.472;2024-01-30T02:22:08;6.40;99.90
52016;DHT22;38032;53.326;6.472;2024-01-30T02:24:34;6.40;99.90
52016;DHT22;38032;53.326;6.472;2024-01-30T02:27:00;6.50;99.90
52016;DHT22;38032;53.326;6.472;2024-01-30T02:29:26;6.50;99.90
52016;DHT22;38032;53.326;6.472;2024-01-30T02:31:52;6.50;99.90
52016;DHT22;38032;53.326;6.472;2024-01-30T02:34:18;6.60;99.90
52016;DHT22;38032;53.326;6.472;2024-01-30T02:36:45;6.60;99.90
52016;DHT22;38032;53.326;6.472;2024-01-30T02:39:11;6.60;99.90
52016;DHT22;38032;53.326;6.472;2024-01-30T02:41:37;6.60;99.90
52016;DHT22;38032;53.326;6.472;2024-01-30T02:44:03;6.60;99.90
52016;DHT22;38032;53.326;6.472;2024-01-30T02:46:29;6.50;99.90
52016;DHT22;38032;53.326;6.472;2024-01-30T02:48:55;6.60;99.90
52016;DHT22;38032;53.326;6.472;2024-01-30T02:51:21;6.50;99.90
52016;DHT22;38032;53.326;6.472;2024-01-30T02:53:47;6.50;99.90
52016;DHT22;38032;53.326;6.472;2024-01-30T02:56:13;6.50;99.90
52016;DHT22;38032;53.326;6.472;2024-01-30T02:58:40;6.50;99.90
52016;DHT22;38032;53.326;6.472;2024-01-30T03:01:06;6.50;99.90
52016;DHT22;38032;53.326;6.472;2024-01-30T03:03:32;6.50;99.90
52016;DHT22;38032;53.326;6.472;2024-01-30T03:05:59;6.60;99.90
52016;DHT22;38032;53.326;6.472;2024-01-30T03:08:25;6.60;99.90
52016;DHT22;38032;53.326;6.472;2024-01-30T03:10:51;6.60;99.90
52016;DHT22;38032;53.326;6.472;2024-01-30T03:13:17;6.60;99.90
52016;DHT22;38032;53.326;6.472;2024-01-30T03:15:42;6.50;99.90
52016;DHT22;38032;53.326;6.472;2024-01-30T03:18:08;6.50;99.90
52016;DHT22;38032;53.326;6.472;2024-01-30T03:20:34;6.50;99.90
52016;DHT22;38032;53.326;6.472;2024-01-30T03:23:00;6.50;99.90
52016;DHT22;38032;53.326;6.472;2024-01-30T03:25:26;6.40;99.90
52016;DHT22;38032;53.326;6.472;2024-01-30T03:27:52;6.40;99.90
52016;DHT22;38032;53.326;6.472;2024-01-30T03:30:18;6.40;99.90
52016;DHT22;38032;53.326;6.472;2024-01-30T03:32:44;6.40;99.90
52016;DHT22;38032;53.326;6.472;2024-01-30T03:35:10;6.40;99.90
52016;DHT22;38032;53.326;6.472;2024-01-30T03:37:36;6.40;99.90
52016;DHT22;38032;53.326;6.472;2024-01-30T03:40:02;6.30;99.90
52016;DHT22;38032;53.326;6.472;2024-01-30T03:42:28;6.30;99.90
52016;DHT22;38032;53.326;6.472;2024-01-30T03:44:54;6.20;99.90
52016;DHT22;38032;53.326;6.472;2024-01-30T03:47:20;6.20;99.90
52016;DHT22;38032;53.326;6.472;2024-01-30T03:49:46;6.20;99.90
52016;DHT22;38032;53.326;6.472;2024-01-30T03:52:12;6.30;99.90
52016;DHT22;38032;53.326;6.472;2024-01-30T03:54:38;6.30;99.90
52016;DHT22;38032;53.326;6.472;2024-01-30T03:57:04;6.40;99.90
52016;DHT22;38032;53.326;6.472;2024-01-30T03:59:31;6.40;99.90
52016;DHT22;38032;53.326;6.472;2024-01-30T04:01:56;6.40;99.90
52016;DHT22;38032;53.326;6.472;2024-01-30T04:04:22;6.50;99.90
52016;DHT22;38032;53.326;6.472;2024-01-30T04:06:48;6.50;99.90
52016;DHT22;38032;53.326;6.472;2024-01-30T04:09:14;6.50;99.90
52016;DHT22;38032;53.326;6.472;2024-01-30T04:11:41;6.50;99.90
52016;DHT22;38032;53.326;6.472;2024-01-30T04:14:08;6.50;99.90
52016;DHT22;38032;53.326;6.472;2024-01-30T04:16:34;6.50;99.90
52016;DHT22;38032;53.326;6.472;2024-01-30T04:19:00;6.50;99.90
52016;DHT22;38032;53.326;6.472;2024-01-30T04:21:26;6.50;99.90
52016;DHT22;38032;53.326;6.472;2024-01-30T04:23:52;6.50;99.90
52016;DHT22;38032;53.326;6.472;2024-01-30T04:26:18;6.50;99.90
52016;DHT22;38032;53.326;6.472;2024-01-30T04:28:45;6.50;99.90
52016;DHT22;38032;53.326;6.472;2024-01-30T04:31:11;6.50;99.90
52016;DHT22;38032;53.326;6.472;2024-01-30T04:33:37;6.50;99.90
52016;DHT22;38032;53.326;6.472;2024-01-30T04:36:03;6.50;99.90
52016;DHT22;38032;53.326;6.472;2024-01-30T04:38:31;6.60;99.90
52016;DHT22;38032;53.326;6.472;2024-01-30T04:40:57;6.60;99.90
52016;DHT22;38032;53.326;6.472;2024-01-30T04:43:22;6.60;99.90
52016;DHT22;38032;53.326;6.472;2024-01-30T04:45:49;6.60;99.90
52016;DHT22;38032;53.326;6.472;2024-01-30T04:48:15;6.60;99.90
52016;DHT22;38032;53.326;6.472;2024-01-30T04:50:41;6.70;99.90
52016;DHT22;38032;53.326;6.472;2024-01-30T04:53:07;6.60;99.90
52016;DHT22;38032;53.326;6.472;2024-01-30T04:55:34;6.70;99.90
52016;DHT22;38032;53.326;6.472;2024-01-30T04:58:01;6.70;99.90
52016;DHT22;38032;53.326;6.472;2024-01-30T05:00:27;6.80;99.90
52016;DHT22;38032;53.326;6.472;2024-01-30T05:02:54;6.80;99.90
52016;DHT22;38032;53.326;6.472;2024-01-30T05:05:20;6.90;99.90
52016;DHT22;38032;53.326;6.472;2024-01-30T05:07:47;6.90;99.90
52016;DHT22;38032;53.326;6.472;2024-01-30T05:10:13;6.90;99.90
52016;DHT22;38032;53.326;6.472;2024-01-30T05:12:40;7.00;99.90
52016;DHT22;38032;53.326;6.472;2024-01-30T05:15:06;7.00;99.90
52016;DHT22;38032;53.326;6.472;2024-01-30T05:17:32;7.00;99.90
52016;DHT22;38032;53.326;6.472;2024-01-30T05:19:58;7.00;99.90
52016;DHT22;38032;53.326;6.472;2024-01-30T05:22:24;7.00;99.90
52016;DHT22;38032;53.326;6.472;2024-01-30T05:24:50;7.00;99.90
52016;DHT22;38032;53.326;6.472;2024-01-30T05:27:16;7.10;99.90
52016;DHT22;38032;53.326;6.472;2024-01-30T05:29:41;7.10;99.90
52016;DHT22;38032;53.326;6.472;2024-01-30T05:32:07;7.10;99.90
52016;DHT22;38032;53.326;6.472;2024-01-30T05:34:35;7.10;99.90
52016;DHT22;38032;53.326;6.472;2024-01-30T05:37:01;7.10;99.90
52016;DHT22;38032;53.326;6.472;2024-01-30T05:39:27;7.10;99.90
52016;DHT22;38032;53.326;6.472;2024-01-30T05:41:53;7.20;99.90
52016;DHT22;38032;53.326;6.472;2024-01-30T05:44:19;7.20;99.90
52016;DHT22;38032;53.326;6.472;2024-01-30T05:46:44;7.20;99.90
52016;DHT22;38032;53.326;6.472;2024-01-30T05:49:10;7.30;99.90
52016;DHT22;38032;53.326;6.472;2024-01-30T05:51:36;7.30;99.90
52016;DHT22;38032;53.326;6.472;2024-01-30T05:54:02;7.30;99.90
52016;DHT22;38032;53.326;6.472;2024-01-30T05:56:29;7.30;99.90
52016;DHT22;38032;53.326;6.472;2024-01-30T05:58:55;7.40;99.90
52016;DHT22;38032;53.326;6.472;2024-01-30T06:01:21;7.40;99.90
52016;DHT22;38032;53.326;6.472;2024-01-30T06:03:46;7.40;99.90
52016;DHT22;38032;53.326;6.472;2024-01-30T06:06:12;7.40;99.90
52016;DHT22;38032;53.326;6.472;2024-01-30T06:08:38;7.50;99.90
52016;DHT22;38032;53.326;6.472;2024-01-30T06:11:04;7.50;99.90
52016;DHT22;38032;53.326;6.472;2024-01-30T06:13:30;7.50;99.90
52016;DHT22;38032;53.326;6.472;2024-01-30T06:15:57;7.50;99.90
52016;DHT22;38032;53.326;6.472;2024-01-30T06:18:23;7.50;99.90
52016;DHT22;38032;53.326;6.472;2024-01-30T06:20:49;7.60;99.90
52016;DHT22;38032;53.326;6.472;2024-01-30T06:23:15;7.60;99.90
52016;DHT22;38032;53.326;6.472;2024-01-30T06:25:41;7.60;99.90
52016;DHT22;38032;53.326;6.472;2024-01-30T06:28:06;7.60;99.90
52016;DHT22;38032;53.326;6.472;2024-01-30T06:30:32;7.60;99.90
52016;DHT22;38032;53.326;6.472;2024-01-30T06:32:58;7.60;99.90
52016;DHT22;38032;53.326;6.472;2024-01-30T06:35:24;7.60;99.90
52016;DHT22;38032;53.326;6.472;2024-01-30T06:37:50;7.60;99.90
52016;DHT22;38032;53.326;6.472;2024-01-30T06:40:16;7.60;99.90
52016;DHT22;38032;53.326;6.472;2024-01-30T06:42:41;7.60;99.90
52016;DHT22;38032;53.326;6.472;2024-01-30T06:45:07;7.60;99.90
52016;DHT22;38032;53.326;6.472;2024-01-30T06:47:33;7.60;99.90
52016;DHT22;38032;53.326;6.472;2024-01-30T06:49:59;7.70;99.90
52016;DHT22;38032;53.326;6.472;2024-01-30T06:52:25;7.70;99.90
52016;DHT22;38032;53.326;6.472;2024-01-30T06:54:51;7.70;99.90
52016;DHT22;38032;53.326;6.472;2024-01-30T06:57:16;7.80;99.90
52016;DHT22;38032;53.326;6.472;2024-01-30T06:59:42;7.80;99.90
52016;DHT22;38032;53.326;6.472;2024-01-30T07:02:10;7.80;99.90
52016;DHT22;38032;53.326;6.472;2024-01-30T07:04:36;7.90;99.90
52016;DHT22;38032;53.326;6.472;2024-01-30T07:07:04;7.90;99.90
52016;DHT22;38032;53.326;6.472;2024-01-30T07:09:31;8.00;99.90
52016;DHT22;38032;53.326;6.472;2024-01-30T07:11:57;8.00;99.90
52016;DHT22;38032;53.326;6.472;2024-01-30T07:14:24;8.00;99.90
52016;DHT22;38032;53.326;6.472;2024-01-30T07:16:50;8.00;99.90
52016;DHT22;38032;53.326;6.472;2024-01-30T07:19:16;8.00;99.90
52016;DHT22;38032;53.326;6.472;2024-01-30T07:21:42;8.00;99.90
52016;DHT22;38032;53.326;6.472;2024-01-30T07:24:08;8.10;99.90
52016;DHT22;38032;53.326;6.472;2024-01-30T07:26:34;8.10;99.90
52016;DHT22;38032;53.326;6.472;2024-01-30T07:29:01;8.20;99.90
52016;DHT22;38032;53.326;6.472;2024-01-30T07:31:27;8.20;99.90
52016;DHT22;38032;53.326;6.472;2024-01-30T07:33:53;8.20;99.90
52016;DHT22;38032;53.326;6.472;2024-01-30T07:36:20;8.20;99.90
52016;DHT22;38032;53.326;6.472;2024-01-30T07:38:46;8.30;99.90
52016;DHT22;38032;53.326;6.472;2024-01-30T07:41:11;8.30;99.90
52016;DHT22;38032;53.326;6.472;2024-01-30T07:43:38;8.30;99.90
52016;DHT22;38032;53.326;6.472;2024-01-30T07:46:04;8.30;99.90
52016;DHT22;38032;53.326;6.472;2024-01-30T07:48:33;8.30;99.90
52016;DHT22;38032;53.326;6.472;2024-01-30T07:51:00;8.30;99.90
52016;DHT22;38032;53.326;6.472;2024-01-30T07:53:25;8.30;99.90
52016;DHT22;38032;53.326;6.472;2024-01-30T07:55:52;8.40;99.90
52016;DHT22;38032;53.326;6.472;2024-01-30T07:58:18;8.40;99.90
52016;DHT22;38032;53.326;6.472;2024-01-30T08:00:45;8.40;99.90
52016;DHT22;38032;53.326;6.472;2024-01-30T08:03:10;8.50;99.90
52016;DHT22;38032;53.326;6.472;2024-01-30T08:05:37;8.50;99.90
52016;DHT22;38032;53.326;6.472;2024-01-30T08:08:04;8.50;99.90
52016;DHT22;38032;53.326;6.472;2024-01-30T08:10:30;8.50;99.90
52016;DHT22;38032;53.326;6.472;2024-01-30T08:12:56;8.50;99.90
52016;DHT22;38032;53.326;6.472;2024-01-30T08:15:22;8.60;99.90
52016;DHT22;38032;53.326;6.472;2024-01-30T08:17:48;8.60;99.90
52016;DHT22;38032;53.326;6.472;2024-01-30T08:20:14;8.60;99.90
52016;DHT22;38032;53.326;6.472;2024-01-30T08:22:40;8.60;99.90
52016;DHT22;38032;53.326;6.472;2024-01-30T08:25:06;8.60;99.90
52016;DHT22;38032;53.326;6.472;2024-01-30T08:27:33;8.70;99.90
52016;DHT22;38032;53.326;6.472;2024-01-30T08:30:01;8.70;99.90
52016;DHT22;38032;53.326;6.472;2024-01-30T08:32:27;8.70;99.90
52016;DHT22;38032;53.326;6.472;2024-01-30T08:34:53;8.70;99.90
52016;DHT22;38032;53.326;6.472;2024-01-30T08:37:19;8.80;99.90
52016;DHT22;38032;53.326;6.472;2024-01-30T08:39:45;8.80;99.90
52016;DHT22;38032;53.326;6.472;2024-01-30T08:42:11;8.80;99.90
52016;DHT22;38032;53.326;6.472;2024-01-30T08:44:37;8.90;99.90
52016;DHT22;38032;53.326;6.472;2024-01-30T08:47:04;8.90;99.90
52016;DHT22;38032;53.326;6.472;2024-01-30T08:49:30;9.00;99.90
52016;DHT22;38032;53.326;6.472;2024-01-30T08:51:56;9.00;99.90
52016;DHT22;38032;53.326;6.472;2024-01-30T08:54:23;9.10;99.90
52016;DHT22;38032;53.326;6.472;2024-01-30T08:56:49;9.20;99.90
52016;DHT22;38032;53.326;6.472;2024-01-30T08:59:15;9.30;99.90
52016;DHT22;38032;53.326;6.472;2024-01-30T09:01:41;9.40;99.90
52016;DHT22;38032;53.326;6.472;2024-01-30T09:04:06;9.40;99.90
52016;DHT22;38032;53.326;6.472;2024-01-30T09:06:32;9.40;99.90
52016;DHT22;38032;53.326;6.472;2024-01-30T09:08:58;9.50;99.90
52016;DHT22;38032;53.326;6.472;2024-01-30T09:11:24;9.60;99.90
52016;DHT22;38032;53.326;6.472;2024-01-30T09:13:50;9.60;99.90
52016;DHT22;38032;53.326;6.472;2024-01-30T09:16:16;9.60;99.90
52016;DHT22;38032;53.326;6.472;2024-01-30T09:18:42;9.60;99.90
52016;DHT22;38032;53.326;6.472;2024-01-30T09:21:08;9.60;99.90
52016;DHT22;38032;53.326;6.472;2024-01-30T09:23:34;9.70;99.90
52016;DHT22;38032;53.326;6.472;2024-01-30T09:26:00;9.70;99.90
52016;DHT22;38032;53.326;6.472;2024-01-30T09:28:26;9.70;99.90
52016;DHT22;38032;53.326;6.472;2024-01-30T09:30:52;9.80;99.90
52016;DHT22;38032;53.326;6.472;2024-01-30T09:33:18;9.90;99.90
52016;DHT22;38032;53.326;6.472;2024-01-30T09:35:44;10.00;99.90
52016;DHT22;38032;53.326;6.472;2024-01-30T09:38:10;10.10;99.90
52016;DHT22;38032;53.326;6.472;2024-01-30T09:40:36;10.10;99.90
52016;DHT22;38032;53.326;6.472;2024-01-30T09:43:02;10.20;99.90
52016;DHT22;38032;53.326;6.472;2024-01-30T09:45:28;10.30;99.90
52016;DHT22;38032;53.326;6.472;2024-01-30T09:47:54;10.30;99.90
52016;DHT22;38032;53.326;6.472;2024-01-30T09:50:20;10.40;99.90
52016;DHT22;38032;53.326;6.472;2024-01-30T09:52:47;10.40;99.90
52016;DHT22;38032;53.326;6.472;2024-01-30T09:55:13;10.40;99.90
52016;DHT22;38032;53.326;6.472;2024-01-30T09:57:39;10.40;99.90
52016;DHT22;38032;53.326;6.472;2024-01-30T10:00:06;10.50;99.90
52016;DHT22;38032;53.326;6.472;2024-01-30T10:02:35;10.50;99.90
52016;DHT22;38032;53.326;6.472;2024-01-30T10:05:02;10.50;99.90
52016;DHT22;38032;53.326;6.472;2024-01-30T10:07:28;10.50;99.90
52016;DHT22;38032;53.326;6.472;2024-01-30T10:09:54;10.60;99.90
52016;DHT22;38032;53.326;6.472;2024-01-30T10:12:23;10.60;99.90
52016;DHT22;38032;53.326;6.472;2024-01-30T10:14:48;10.60;99.90
52016;DHT22;38032;53.326;6.472;2024-01-30T10:17:14;10.60;99.90
52016;DHT22;38032;53.326;6.472;2024-01-30T10:19:41;10.70;99.90
52016;DHT22;38032;53.326;6.472;2024-01-30T10:22:07;10.70;99.90
52016;DHT22;38032;53.326;6.472;2024-01-30T10:24:34;10.70;99.90
52016;DHT22;38032;53.326;6.472;2024-01-30T10:27:00;10.70;99.90
52016;DHT22;38032;53.326;6.472;2024-01-30T10:29:27;10.70;99.90
52016;DHT22;38032;53.326;6.472;2024-01-30T10:32:00;10.80;99.90
52016;DHT22;38032;53.326;6.472;2024-01-30T10:34:26;10.80;99.90
52016;DHT22;38032;53.326;6.472;2024-01-30T10:37:07;10.80;99.90
52016;DHT22;38032;53.326;6.472;2024-01-30T10:39:38;10.80;99.90
52016;DHT22;38032;53.326;6.472;2024-01-30T10:42:05;10.80;99.90
52016;DHT22;38032;53.326;6.472;2024-01-30T10:44:43;10.80;99.90
52016;DHT22;38032;53.326;6.472;2024-01-30T10:47:12;10.90;99.90
52016;DHT22;38032;53.326;6.472;2024-01-30T10:49:40;10.90;99.90
52016;DHT22;38032;53.326;6.472;2024-01-30T10:52:09;10.90;99.90
52016;DHT22;38032;53.326;6.472;2024-01-30T10:54:36;10.90;99.90
52016;DHT22;38032;53.326;6.472;2024-01-30T10:57:03;11.00;99.90
52016;DHT22;38032;53.326;6.472;2024-01-30T10:59:31;11.00;99.90
52016;DHT22;38032;53.326;6.472;2024-01-30T11:01:58;11.00;99.90
52016;DHT22;38032;53.326;6.472;2024-01-30T11:04:25;11.00;99.90
52016;DHT22;38032;53.326;6.472;2024-01-30T11:06:51;11.00;99.90
52016;DHT22;38032;53.326;6.472;2024-01-30T11:09:18;11.10;99.90
52016;DHT22;38032;53.326;6.472;2024-01-30T11:11:51;11.00;99.90
52016;DHT22;38032;53.326;6.472;2024-01-30T11:14:25;11.10;99.90
52016;DHT22;38032;53.326;6.472;2024-01-30T11:16:51;11.00;99.90
52016;DHT22;38032;53.326;6.472;2024-01-30T11:19:25;11.10;99.90
52016;DHT22;38032;53.326;6.472;2024-01-30T11:21:53;11.00;99.90
52016;DHT22;38032;53.326;6.472;2024-01-30T11:24:21;11.10;99.90
52016;DHT22;38032;53.326;6.472;2024-01-30T11:26:49;11.00;99.90
52016;DHT22;38032;53.326;6.472;2024-01-30T11:29:17;11.10;99.90
52016;DHT22;38032;53.326;6.472;2024-01-30T11:31:58;11.10;99.90
52016;DHT22;38032;53.326;6.472;2024-01-30T11:34:24;11.10;99.90
52016;DHT22;38032;53.326;6.472;2024-01-30T11:36:56;11.10;99.90
52016;DHT22;38032;53.326;6.472;2024-01-30T11:39:25;11.00;99.90
52016;DHT22;38032;53.326;6.472;2024-01-30T11:41:51;11.10;99.90
52016;DHT22;38032;53.326;6.472;2024-01-30T11:44:19;11.00;99.90
52016;DHT22;38032;53.326;6.472;2024-01-30T11:46:52;11.00;99.90
52016;DHT22;38032;53.326;6.472;2024-01-30T11:49:18;11.00;99.90
52016;DHT22;38032;53.326;6.472;2024-01-30T11:51:47;10.90;99.90
52016;DHT22;38032;53.326;6.472;2024-01-30T11:54:16;10.90;99.90
52016;DHT22;38032;53.326;6.472;2024-01-30T11:56:42;10.90;99.90
52016;DHT22;38032;53.326;6.472;2024-01-30T11:59:08;10.90;99.90
52016;DHT22;38032;53.326;6.472;2024-01-30T12:01:34;10.80;99.90
52016;DHT22;38032;53.326;6.472;2024-01-30T12:04:00;10.90;99.90
52016;DHT22;38032;53.326;6.472;2024-01-30T12:06:27;10.80;99.90
52016;DHT22;38032;53.326;6.472;2024-01-30T12:09:00;10.80;99.90
52016;DHT22;38032;53.326;6.472;2024-01-30T12:11:27;10.90;99.90
52016;DHT22;38032;53.326;6.472;2024-01-30T12:13:53;10.80;99.90
52016;DHT22;38032;53.326;6.472;2024-01-30T12:16:20;10.90;99.90
52016;DHT22;38032;53.326;6.472;2024-01-30T12:18:46;10.90;99.90
52016;DHT22;38032;53.326;6.472;2024-01-30T12:21:12;11.00;99.90
52016;DHT22;38032;53.326;6.472;2024-01-30T12:23:38;11.00;99.90
52016;DHT22;38032;53.326;6.472;2024-01-30T12:26:05;11.00;99.90
52016;DHT22;38032;53.326;6.472;2024-01-30T12:28:33;11.00;99.90
52016;DHT22;38032;53.326;6.472;2024-01-30T12:31:05;11.00;99.90
52016;DHT22;38032;53.326;6.472;2024-01-30T12:33:31;11.00;99.90
52016;DHT22;38032;53.326;6.472;2024-01-30T12:36:01;11.10;99.90
52016;DHT22;38032;53.326;6.472;2024-01-30T12:38:27;11.10;99.90
52016;DHT22;38032;53.326;6.472;2024-01-30T12:40:55;11.00;99.90
52016;DHT22;38032;53.326;6.472;2024-01-30T12:43:22;11.10;99.90
52016;DHT22;38032;53.326;6.472;2024-01-30T12:45:50;11.10;99.90
52016;DHT22;38032;53.326;6.472;2024-01-30T12:48:16;11.20;99.90
52016;DHT22;38032;53.326;6.472;2024-01-30T12:50:42;11.20;99.90
52016;DHT22;38032;53.326;6.472;2024-01-30T12:53:08;11.30;99.90
52016;DHT22;38032;53.326;6.472;2024-01-30T12:55:35;11.30;99.90
52016;DHT22;38032;53.326;6.472;2024-01-30T12:58:01;11.40;99.90
52016;DHT22;38032;53.326;6.472;2024-01-30T13:00:27;11.40;99.90
52016;DHT22;38032;53.326;6.472;2024-01-30T13:02:53;11.40;99.90
52016;DHT22;38032;53.326;6.472;2024-01-30T13:05:19;11.40;99.90
52016;DHT22;38032;53.326;6.472;2024-01-30T13:07:45;11.50;99.90
52016;DHT22;38032;53.326;6.472;2024-01-30T13:10:11;11.50;99.90
52016;DHT22;38032;53.326;6.472;2024-01-30T13:12:36;11.50;99.90
52016;DHT22;38032;53.326;6.472;2024-01-30T13:15:04;11.50;99.90
52016;DHT22;38032;53.326;6.472;2024-01-30T13:17:31;11.50;99.90
52016;DHT22;38032;53.326;6.472;2024-01-30T13:19:57;11.60;99.90
52016;DHT22;38032;53.326;6.472;2024-01-30T13:22:23;11.50;99.90
52016;DHT22;38032;53.326;6.472;2024-01-30T13:24:50;11.60;99.90
52016;DHT22;38032;53.326;6.472;2024-01-30T13:27:16;11.60;99.90
52016;DHT22;38032;53.326;6.472;2024-01-30T13:29:42;11.70;99.90
52016;DHT22;38032;53.326;6.472;2024-01-30T13:32:08;11.70;99.90
52016;DHT22;38032;53.326;6.472;2024-01-30T13:34:34;11.70;99.90
52016;DHT22;38032;53.326;6.472;2024-01-30T13:37:00;11.70;99.90
52016;DHT22;38032;53.326;6.472;2024-01-30T13:39:26;11.60;99.90
52016;DHT22;38032;53.326;6.472;2024-01-30T13:41:51;11.60;99.90
52016;DHT22;38032;53.326;6.472;2024-01-30T13:44:17;11.60;99.90
52016;DHT22;38032;53.326;6.472;2024-01-30T13:46:44;11.60;99.90
52016;DHT22;38032;53.326;6.472;2024-01-30T13:49:10;11.50;99.90
52016;DHT22;38032;53.326;6.472;2024-01-30T13:51:36;11.60;99.90
52016;DHT22;38032;53.326;6.472;2024-01-30T13:54:02;11.50;99.90
52016;DHT22;38032;53.326;6.472;2024-01-30T13:56:28;11.50;99.90
52016;DHT22;38032;53.326;6.472;2024-01-30T13:58:54;11.50;99.90
52016;DHT22;38032;53.326;6.472;2024-01-30T14:01:22;11.50;99.90
52016;DHT22;38032;53.326;6.472;2024-01-30T14:03:48;11.50;99.90
52016;DHT22;38032;53.326;6.472;2024-01-30T14:06:14;11.40;99.90
52016;DHT22;38032;53.326;6.472;2024-01-30T14:08:40;11.40;99.90
52016;DHT22;38032;53.326;6.472;2024-01-30T14:11:06;11.40;99.90
52016;DHT22;38032;53.326;6.472;2024-01-30T14:13:32;11.40;99.90
52016;DHT22;38032;53.326;6.472;2024-01-30T14:15:58;11.30;99.90
52016;DHT22;38032;53.326;6.472;2024-01-30T14:18:24;11.20;99.90
52016;DHT22;38032;53.326;6.472;2024-01-30T14:20:51;11.20;99.90
52016;DHT22;38032;53.326;6.472;2024-01-30T14:23:17;11.20;99.90
52016;DHT22;38032;53.326;6.472;2024-01-30T14:25:43;11.10;99.90
52016;DHT22;38032;53.326;6.472;2024-01-30T14:28:09;11.10;99.90
52016;DHT22;38032;53.326;6.472;2024-01-30T14:30:35;11.10;99.90
52016;DHT22;38032;53.326;6.472;2024-01-30T14:33:01;11.00;99.90
52016;DHT22;38032;53.326;6.472;2024-01-30T14:35:27;11.00;99.90
52016;DHT22;38032;53.326;6.472;2024-01-30T14:37:53;11.00;99.90
52016;DHT22;38032;53.326;6.472;2024-01-30T14:40:19;11.00;99.90
52016;DHT22;38032;53.326;6.472;2024-01-30T14:42:45;10.90;99.90
52016;DHT22;38032;53.326;6.472;2024-01-30T14:45:11;10.90;99.90
52016;DHT22;38032;53.326;6.472;2024-01-30T14:47:37;10.90;99.90
52016;DHT22;38032;53.326;6.472;2024-01-30T14:50:04;10.90;99.90
52016;DHT22;38032;53.326;6.472;2024-01-30T14:52:31;10.80;99.90
52016;DHT22;38032;53.326;6.472;2024-01-30T14:54:57;10.80;99.90
52016;DHT22;38032;53.326;6.472;2024-01-30T14:57:24;10.80;99.90
52016;DHT22;38032;53.326;6.472;2024-01-30T14:59:50;10.80;99.90
52016;DHT22;38032;53.326;6.472;2024-01-30T15:02:17;10.70;99.90
52016;DHT22;38032;53.326;6.472;2024-01-30T15:04:43;10.70;99.90
52016;DHT22;38032;53.326;6.472;2024-01-30T15:07:08;10.70;99.90
52016;DHT22;38032;53.326;6.472;2024-01-30T15:09:34;10.70;99.90
52016;DHT22;38032;53.326;6.472;2024-01-30T15:12:00;10.70;99.90
52016;DHT22;38032;53.326;6.472;2024-01-30T15:14:26;10.70;99.90
52016;DHT22;38032;53.326;6.472;2024-01-30T15:16:52;10.70;99.90
52016;DHT22;38032;53.326;6.472;2024-01-30T15:19:18;10.70;99.90
52016;DHT22;38032;53.326;6.472;2024-01-30T15:21:44;10.70;99.90
52016;DHT22;38032;53.326;6.472;2024-01-30T15:24:10;10.60;99.90
52016;DHT22;38032;53.326;6.472;2024-01-30T15:26:40;10.60;99.90
52016;DHT22;38032;53.326;6.472;2024-01-30T15:29:06;10.60;99.90
52016;DHT22;38032;53.326;6.472;2024-01-30T15:31:32;10.60;99.90
52016;DHT22;38032;53.326;6.472;2024-01-30T15:33:58;10.60;99.90